createdAt,value
2019-03-09T00:02:21.085Z,1.60
2019-03-09T00:04:49.468Z,1.82
2019-03-09T00:07:17.847Z,1.90
2019-03-09T00:09:46.230Z,2.02
2019-03-09T00:12:14.612Z,2.00
2019-03-09T00:14:42.986Z,2.10
2019-03-09T00:17:11.376Z,2.95
2019-03-09T00:19:39.756Z,1.82
2019-03-09T00:22:08.133Z,2.02
2019-03-09T00:24:53.090Z,2.10
2019-03-09T00:27:29.830Z,2.15
2019-03-09T00:30:14.228Z,2.20
2019-03-09T00:32:42.607Z,1.87
2019-03-09T00:35:10.999Z,2.40
2019-03-09T00:37:39.383Z,1.75
2019-03-09T00:40:10.216Z,1.90
2019-03-09T00:42:38.728Z,1.52
2019-03-09T00:45:07.844Z,1.77
2019-03-09T00:47:36.222Z,1.72
2019-03-09T00:50:07.283Z,1.90
2019-03-09T00:52:35.656Z,1.40
2019-03-09T00:55:06.659Z,1.65
2019-03-09T00:57:35.036Z,1.77
2019-03-09T01:00:03.921Z,1.85
2019-03-09T01:02:32.646Z,1.50
2019-03-09T01:05:01.026Z,1.70
2019-03-09T01:07:29.409Z,1.67
2019-03-09T01:09:57.795Z,2.17
2019-03-09T01:12:26.174Z,1.92
2019-03-09T01:14:54.564Z,1.47
2019-03-09T01:17:22.936Z,1.92
2019-03-09T01:19:51.392Z,1.65
2019-03-09T01:22:19.781Z,1.50
2019-03-09T01:24:48.169Z,1.77
2019-03-09T01:27:16.550Z,2.08
2019-03-09T01:29:44.932Z,1.77
2019-03-09T01:32:13.382Z,2.02
2019-03-09T01:34:41.789Z,1.92
2019-03-09T01:37:10.148Z,1.70
2019-03-09T01:39:38.856Z,1.70
2019-03-09T01:42:07.234Z,1.85
2019-03-09T01:44:35.624Z,1.90
2019-03-09T01:47:04.069Z,1.02
2019-03-09T01:49:32.464Z,1.82
2019-03-09T01:52:00.827Z,2.52
2019-03-09T01:54:29.213Z,1.10
2019-03-09T01:56:57.583Z,1.67
2019-03-09T01:59:26.311Z,1.17
2019-03-09T02:01:54.684Z,1.65
2019-03-09T02:04:23.081Z,1.95
2019-03-09T02:06:51.456Z,1.60
2019-03-09T02:09:19.919Z,1.80
2019-03-09T02:11:48.295Z,1.27
2019-03-09T02:14:16.671Z,1.50
2019-03-09T02:16:45.375Z,1.50
2019-03-09T02:19:13.748Z,1.85
2019-03-09T02:21:42.140Z,1.45
2019-03-09T02:24:10.516Z,1.30
2019-03-09T02:26:38.905Z,1.60
2019-03-09T02:29:07.284Z,1.60
2019-03-09T02:31:35.680Z,1.55
2019-03-09T02:34:04.054Z,1.70
2019-03-09T02:36:32.457Z,1.35
2019-03-09T02:39:02.492Z,2.10
2019-03-09T02:41:30.867Z,1.60
2019-03-09T02:43:59.236Z,1.50
2019-03-09T02:46:27.629Z,1.72
2019-03-09T02:48:56.017Z,2.00
2019-03-09T02:51:24.399Z,1.20
2019-03-09T02:53:52.785Z,1.55
2019-03-09T02:56:21.172Z,1.72
2019-03-09T02:58:49.556Z,1.50
2019-03-09T03:01:22.107Z,1.70
2019-03-09T03:03:50.479Z,1.50
2019-03-09T03:06:18.878Z,1.52
2019-03-09T03:08:47.257Z,1.57
2019-03-09T03:11:15.664Z,1.40
2019-03-09T03:13:44.027Z,1.60
2019-03-09T03:16:12.404Z,1.62
2019-03-09T03:18:40.780Z,1.77
2019-03-09T03:21:09.157Z,1.30
2019-03-09T03:23:37.561Z,1.50
2019-03-09T03:26:05.943Z,1.27
2019-03-09T03:28:34.345Z,2.30
2019-03-09T03:31:02.745Z,1.40
2019-03-09T03:33:31.105Z,1.50
2019-03-09T03:35:59.480Z,1.05
2019-03-09T03:38:27.869Z,1.20
2019-03-09T03:40:56.310Z,1.22
2019-03-09T03:43:24.699Z,1.45
2019-03-09T03:45:53.085Z,1.72
2019-03-09T03:48:21.978Z,0.95
2019-03-09T03:50:50.403Z,1.20
2019-03-09T03:53:18.848Z,1.35
2019-03-09T03:55:47.304Z,0.80
2019-03-09T03:58:15.762Z,1.17
2019-03-09T04:00:44.203Z,1.27
2019-03-09T04:03:12.592Z,1.17
2019-03-09T04:05:41.046Z,1.40
2019-03-09T04:08:09.424Z,1.37
2019-03-09T04:10:37.872Z,1.25
2019-03-09T04:13:06.277Z,0.98
2019-03-09T04:15:34.639Z,0.93
2019-03-09T04:18:03.033Z,0.95
2019-03-09T04:20:31.480Z,0.98
2019-03-09T04:22:59.878Z,0.90
2019-03-09T04:25:28.252Z,1.00
2019-03-09T04:27:56.636Z,1.10
2019-03-09T04:30:25.388Z,1.00
2019-03-09T04:32:53.767Z,1.00
2019-03-09T04:35:22.185Z,1.47
2019-03-09T04:37:50.641Z,0.90
2019-03-09T04:40:19.036Z,1.02
2019-03-09T04:42:47.408Z,1.65
2019-03-09T04:45:15.805Z,0.90
2019-03-09T04:47:44.183Z,0.98
2019-03-09T04:50:14.010Z,1.10
2019-03-09T04:52:42.382Z,1.00
2019-03-09T04:55:11.225Z,0.95
2019-03-09T04:57:39.600Z,1.10
2019-03-09T05:00:12.398Z,1.07
2019-03-09T05:02:40.772Z,1.07
2019-03-09T05:05:10.607Z,1.20
2019-03-09T05:07:41.415Z,1.17
2019-03-09T05:10:28.011Z,0.80
2019-03-09T05:13:08.390Z,1.05
2019-03-09T05:15:36.784Z,1.27
2019-03-09T05:18:05.229Z,0.88
2019-03-09T05:20:33.619Z,1.27
2019-03-09T05:23:02.009Z,1.00
2019-03-09T05:25:30.399Z,0.90
2019-03-09T05:27:58.791Z,1.00
2019-03-09T05:30:38.233Z,1.07
2019-03-09T05:33:06.610Z,1.00
2019-03-09T05:35:35.263Z,1.12
2019-03-09T05:38:03.983Z,0.90
2019-03-09T05:40:32.374Z,0.88
2019-03-09T05:43:00.836Z,1.30
2019-03-09T05:45:29.224Z,1.00
2019-03-09T05:47:57.914Z,0.90
2019-03-09T05:50:26.601Z,0.90
2019-03-09T05:53:06.245Z,1.00
2019-03-09T05:55:34.632Z,1.10
2019-03-09T05:58:03.012Z,1.05
2019-03-09T06:00:31.767Z,1.02
2019-03-09T06:03:00.145Z,1.15
2019-03-09T06:05:30.945Z,1.10
2019-03-09T06:07:59.324Z,0.80
2019-03-09T06:10:28.081Z,0.85
2019-03-09T06:12:56.495Z,1.55
2019-03-09T06:15:24.882Z,1.12
2019-03-09T06:17:53.259Z,1.10
2019-03-09T06:20:21.647Z,1.00
2019-03-09T06:22:50.025Z,0.80
2019-03-09T06:25:18.408Z,1.10
2019-03-09T06:27:46.787Z,1.22
2019-03-09T06:30:15.330Z,1.65
2019-03-09T06:32:46.791Z,1.00
2019-03-09T06:35:21.103Z,1.10
2019-03-09T06:38:08.819Z,1.00
2019-03-09T06:40:37.224Z,0.90
2019-03-09T06:43:05.607Z,0.80
2019-03-09T06:45:33.988Z,1.20
2019-03-09T06:48:02.377Z,1.20
2019-03-09T06:50:30.747Z,1.10
2019-03-09T06:52:59.172Z,1.10
2019-03-09T06:55:27.602Z,0.95
2019-03-09T06:57:55.987Z,1.05
2019-03-09T07:00:38.807Z,0.70
2019-03-09T07:03:07.301Z,0.90
2019-03-09T07:05:35.680Z,1.10
2019-03-09T07:08:04.141Z,1.00
2019-03-09T07:10:32.526Z,0.90
2019-03-09T07:13:00.917Z,0.80
2019-03-09T07:15:34.456Z,1.00
2019-03-09T07:18:07.657Z,0.80
2019-03-09T07:20:36.020Z,0.85
2019-03-09T07:23:04.413Z,0.80
2019-03-09T07:25:32.850Z,0.98
2019-03-09T07:28:06.436Z,1.00
2019-03-09T07:30:36.345Z,0.98
2019-03-09T07:33:04.981Z,0.70
2019-03-09T07:35:33.356Z,0.60
2019-03-09T07:38:01.747Z,1.00
2019-03-09T07:40:30.129Z,0.60
2019-03-09T07:42:58.528Z,0.93
2019-03-09T07:45:26.967Z,0.90
2019-03-09T07:47:55.350Z,0.90
2019-03-09T07:50:23.793Z,0.70
2019-03-09T07:52:52.174Z,0.98
2019-03-09T07:55:22.008Z,0.62
2019-03-09T07:57:50.530Z,0.90
2019-03-09T08:00:21.208Z,0.80
2019-03-09T08:02:49.672Z,0.75
2019-03-09T08:05:18.044Z,0.60
2019-03-09T08:07:46.485Z,0.70
2019-03-09T08:10:17.595Z,0.90
2019-03-09T08:12:46.172Z,0.80
2019-03-09T08:15:16.411Z,0.55
2019-03-09T08:17:45.070Z,0.72
2019-03-09T08:20:17.963Z,0.93
2019-03-09T08:22:46.844Z,0.78
2019-03-09T08:25:17.745Z,0.78
2019-03-09T08:27:46.166Z,0.72
2019-03-09T08:30:16.558Z,0.90
2019-03-09T08:32:44.931Z,0.78
2019-03-09T08:35:14.945Z,0.60
2019-03-09T08:37:43.326Z,0.80
2019-03-09T08:40:14.885Z,0.60
2019-03-09T08:42:43.353Z,0.85
2019-03-09T08:45:17.315Z,0.75
2019-03-09T08:47:52.268Z,0.85
2019-03-09T08:50:21.391Z,0.70
2019-03-09T08:52:49.901Z,0.90
2019-03-09T08:55:18.889Z,0.82
2019-03-09T08:57:47.557Z,0.62
2019-03-09T09:00:24.611Z,0.60
2019-03-09T09:02:52.988Z,0.70
2019-03-09T09:05:21.396Z,0.62
2019-03-09T09:07:49.803Z,0.80
2019-03-09T09:10:18.189Z,0.57
2019-03-09T09:12:46.647Z,0.68
2019-03-09T09:15:17.168Z,0.50
2019-03-09T09:20:21.965Z,0.60
2019-03-09T09:22:50.475Z,0.60
2019-03-09T09:25:19.348Z,0.70
2019-03-09T09:27:47.738Z,0.50
2019-03-09T09:30:21.553Z,0.88
2019-03-09T09:32:49.971Z,0.60
2019-03-09T09:35:18.966Z,0.50
2019-03-09T09:37:47.429Z,0.40
2019-03-09T09:40:24.583Z,0.57
2019-03-09T09:42:53.195Z,0.47
2019-03-09T09:45:22.214Z,0.40
2019-03-09T09:47:50.853Z,0.60
2019-03-09T09:50:19.254Z,0.90
2019-03-09T09:52:47.637Z,0.50
2019-03-09T09:55:17.467Z,0.40
2019-03-09T09:57:45.855Z,0.35
2019-03-09T10:00:22.563Z,0.40
2019-03-09T10:02:50.934Z,0.75
2019-03-09T10:05:19.398Z,0.62
2019-03-09T10:07:47.784Z,0.50
2019-03-09T10:10:17.915Z,0.40
2019-03-09T10:12:46.291Z,0.50
2019-03-09T10:15:17.759Z,0.65
2019-03-09T10:17:46.485Z,0.60
2019-03-09T10:20:14.950Z,0.50
2019-03-09T10:22:43.597Z,0.37
2019-03-09T10:25:11.993Z,0.57
2019-03-09T10:27:40.401Z,0.30
2019-03-09T10:30:14.687Z,0.40
2019-03-09T10:32:43.067Z,0.53
2019-03-09T10:35:11.536Z,0.42
2019-03-09T10:37:39.920Z,0.40
2019-03-09T10:40:10.957Z,0.40
2019-03-09T10:42:39.344Z,0.30
2019-03-09T10:45:10.579Z,0.78
2019-03-09T10:47:38.959Z,0.60
2019-03-09T10:50:10.307Z,0.47
2019-03-09T10:52:38.759Z,0.40
2019-03-09T10:55:15.154Z,0.50
2019-03-09T10:57:44.300Z,0.53
2019-03-09T11:00:33.147Z,0.68
2019-03-09T11:03:01.536Z,0.72
2019-03-09T11:05:30.197Z,0.53
2019-03-09T11:07:58.651Z,0.70
2019-03-09T11:10:27.041Z,1.75
2019-03-09T11:12:55.418Z,0.72
2019-03-09T11:15:23.831Z,1.02
2019-03-09T11:17:52.219Z,0.90
2019-03-09T11:20:21.455Z,0.80
2019-03-09T11:22:49.840Z,1.30
2019-03-09T11:25:18.297Z,1.12
2019-03-09T11:27:46.691Z,1.02
2019-03-09T11:30:20.557Z,1.10
2019-03-09T11:32:48.931Z,0.70
2019-03-09T11:35:17.319Z,0.60
2019-03-09T11:37:45.711Z,0.90
2019-03-09T11:40:14.668Z,0.60
2019-03-09T11:42:43.075Z,0.47
2019-03-09T11:45:16.468Z,0.65
2019-03-09T11:47:44.876Z,0.78
2019-03-09T11:50:17.247Z,0.70
2019-03-09T11:52:46.008Z,0.62
2019-03-09T11:55:15.828Z,0.62
2019-03-09T11:57:44.288Z,0.65
2019-03-09T12:00:21.120Z,0.50
2019-03-09T12:02:49.515Z,0.62
2019-03-09T12:05:17.892Z,0.80
2019-03-09T12:07:46.290Z,1.02
2019-03-09T12:10:14.826Z,0.88
2019-03-09T12:12:43.199Z,0.62
2019-03-09T12:15:14.185Z,1.00
2019-03-09T12:17:42.571Z,0.80
2019-03-09T12:20:13.292Z,0.80
2019-03-09T12:22:41.691Z,0.55
2019-03-09T12:25:15.310Z,0.70
2019-03-09T12:27:43.704Z,0.70
2019-03-09T12:30:14.794Z,0.50
2019-03-09T12:32:43.182Z,0.50
2019-03-09T12:35:11.636Z,0.50
2019-03-09T12:37:40.049Z,0.50
2019-03-09T12:40:14.691Z,0.75
2019-03-09T12:42:43.085Z,0.62
2019-03-09T12:45:12.213Z,0.70
2019-03-09T12:47:40.603Z,0.70
2019-03-09T12:50:12.034Z,0.90
2019-03-09T12:52:40.419Z,0.93
2019-03-09T12:55:08.881Z,0.75
2019-03-09T12:57:37.263Z,0.80
2019-03-09T13:00:08.724Z,0.95
2019-03-09T13:02:37.115Z,0.90
2019-03-09T13:05:06.840Z,1.30
2019-03-09T13:07:35.300Z,1.10
2019-03-09T13:10:05.525Z,0.93
2019-03-09T13:12:33.921Z,0.90
2019-03-09T13:15:04.641Z,0.90
2019-03-09T13:17:32.407Z,0.90
2019-03-09T13:20:00.794Z,0.70
2019-03-09T13:22:29.176Z,0.65
2019-03-09T13:24:57.567Z,0.85
2019-03-09T13:27:25.947Z,0.60
2019-03-09T13:29:54.335Z,0.80
2019-03-09T13:32:22.744Z,0.80
2019-03-09T13:34:51.136Z,0.88
2019-03-09T13:37:19.514Z,1.00
2019-03-09T13:39:47.912Z,0.80
2019-03-09T13:42:16.294Z,0.70
2019-03-09T13:44:44.685Z,1.10
2019-03-09T13:47:13.073Z,0.70
2019-03-09T13:49:41.544Z,0.78
2019-03-09T13:52:10.003Z,0.80
2019-03-09T13:54:38.404Z,0.70
2019-03-09T13:57:06.780Z,0.60
2019-03-09T13:59:35.197Z,0.50
2019-03-09T14:02:03.575Z,0.60
2019-03-09T14:04:31.968Z,0.50
2019-03-09T14:07:00.348Z,0.55
2019-03-09T14:09:28.737Z,0.62
2019-03-09T14:11:57.161Z,0.40
2019-03-09T14:14:25.595Z,0.50
2019-03-09T14:16:53.996Z,0.50
2019-03-09T14:19:22.363Z,0.60
2019-03-09T14:21:50.748Z,0.57
2019-03-09T14:24:19.285Z,0.50
2019-03-09T14:26:47.812Z,0.33
2019-03-09T14:29:16.205Z,0.57
2019-03-09T14:31:44.576Z,0.60
2019-03-09T14:34:12.988Z,0.40
2019-03-09T14:36:41.361Z,0.50
2019-03-09T14:39:09.752Z,0.30
2019-03-09T14:41:38.127Z,0.30
2019-03-09T14:44:06.520Z,0.60
2019-03-09T14:46:34.903Z,0.47
2019-03-09T14:49:03.284Z,0.40
2019-03-09T14:51:31.740Z,0.40
2019-03-09T14:54:00.141Z,0.70
2019-03-09T14:56:28.535Z,0.37
2019-03-09T14:58:56.920Z,0.60
2019-03-09T15:01:25.308Z,0.70
2019-03-09T15:03:53.709Z,0.80
2019-03-09T15:06:22.232Z,0.40
2019-03-09T15:08:50.844Z,0.40
2019-03-09T15:11:19.240Z,0.50
2019-03-09T15:13:47.675Z,0.60
2019-03-09T15:16:16.056Z,0.40
2019-03-09T15:18:44.451Z,1.15
2019-03-09T15:21:13.059Z,0.40
2019-03-09T15:23:41.491Z,0.60
2019-03-09T15:26:09.884Z,0.70
2019-03-09T15:28:38.269Z,0.50
2019-03-09T15:31:06.661Z,0.60
2019-03-09T15:33:35.048Z,0.53
2019-03-09T15:36:03.444Z,0.55
2019-03-09T15:38:31.822Z,0.68
2019-03-09T15:41:00.226Z,0.50
2019-03-09T15:45:58.666Z,0.40
2019-03-09T15:48:27.048Z,0.55
2019-03-09T15:50:55.443Z,0.60
2019-03-09T15:53:23.820Z,0.60
2019-03-09T15:55:52.211Z,0.68
2019-03-09T15:58:20.621Z,0.60
2019-03-09T16:00:49.042Z,0.60
2019-03-09T16:03:17.405Z,0.80
2019-03-09T16:05:45.799Z,0.53
2019-03-09T16:08:14.201Z,0.57
2019-03-09T16:10:42.586Z,0.60
2019-03-09T16:13:10.976Z,0.70
2019-03-09T16:15:39.429Z,0.70
2019-03-09T16:18:07.892Z,0.60
2019-03-09T16:20:36.285Z,0.70
2019-03-09T16:23:04.667Z,0.70
2019-03-09T16:25:33.049Z,1.05
2019-03-09T16:28:01.452Z,0.90
2019-03-09T16:30:29.832Z,1.00
2019-03-09T16:32:58.231Z,0.60
2019-03-09T16:35:26.611Z,0.70
2019-03-09T16:37:55.013Z,0.95
2019-03-09T16:40:24.868Z,1.02
2019-03-09T16:42:53.259Z,0.93
2019-03-09T16:45:21.635Z,1.40
2019-03-09T16:47:50.055Z,1.10
2019-03-09T16:50:19.082Z,0.85
2019-03-09T16:52:47.475Z,1.10
2019-03-09T16:55:16.221Z,0.90
2019-03-09T16:57:44.803Z,1.10
2019-03-09T17:00:22.704Z,1.00
2019-03-09T17:02:51.096Z,1.10
2019-03-09T17:05:19.618Z,1.75
2019-03-09T17:07:48.012Z,1.30
2019-03-09T17:10:19.173Z,1.20
2019-03-09T17:12:47.254Z,1.10
2019-03-09T17:15:23.213Z,1.10
2019-03-09T17:17:51.684Z,1.30
2019-03-09T17:20:20.059Z,1.50
2019-03-09T17:22:48.465Z,0.95
2019-03-09T17:25:16.929Z,1.22
2019-03-09T17:27:45.319Z,1.57
2019-03-09T17:30:19.216Z,1.12
2019-03-09T17:32:47.620Z,1.00
2019-03-09T17:35:16.005Z,1.20
2019-03-09T17:37:44.413Z,1.30
2019-03-09T17:40:14.543Z,1.20
2019-03-09T17:42:42.955Z,1.67
2019-03-09T17:45:13.971Z,1.72
2019-03-09T17:47:42.366Z,1.27
2019-03-09T17:50:12.575Z,1.70
2019-03-09T17:52:41.003Z,2.00
2019-03-09T17:55:10.836Z,1.52
2019-03-09T17:57:39.238Z,1.55
2019-03-09T18:00:13.315Z,1.70
2019-03-09T18:02:41.715Z,1.67
2019-03-09T18:05:10.104Z,1.32
2019-03-09T18:07:38.491Z,1.47
2019-03-09T18:10:09.967Z,1.72
2019-03-09T18:12:40.437Z,1.45
2019-03-09T18:15:09.835Z,1.57
2019-03-09T18:17:38.207Z,1.50
2019-03-09T18:20:09.210Z,2.55
2019-03-09T18:22:37.591Z,1.75
2019-03-09T18:25:07.034Z,2.15
2019-03-09T18:27:35.862Z,2.05
2019-03-09T18:30:06.048Z,1.82
2019-03-09T18:32:34.659Z,1.52
2019-03-09T18:35:03.328Z,2.25
2019-03-09T18:37:31.723Z,2.67
2019-03-09T18:40:00.318Z,2.20
2019-03-09T18:42:28.675Z,1.82
2019-03-09T18:44:57.093Z,2.22
2019-03-09T18:47:25.480Z,2.85
2019-03-09T18:49:53.867Z,2.40
2019-03-09T18:52:22.256Z,3.50
2019-03-09T18:54:50.662Z,2.33
2019-03-09T18:57:19.047Z,2.50
2019-03-09T18:59:47.428Z,1.87
2019-03-09T19:02:15.816Z,2.75
2019-03-09T19:04:44.224Z,3.00
2019-03-09T19:07:12.620Z,2.12
2019-03-09T19:09:41.232Z,2.37
2019-03-09T19:12:09.696Z,2.60
2019-03-09T19:14:38.348Z,2.70
2019-03-09T19:17:06.733Z,2.75
2019-03-09T19:19:35.128Z,2.67
2019-03-09T19:22:03.852Z,2.62
2019-03-09T19:24:32.617Z,3.60
2019-03-09T19:27:01.045Z,3.15
2019-03-09T19:29:29.433Z,4.03
2019-03-09T19:31:57.830Z,2.62
2019-03-09T19:34:26.220Z,2.62
2019-03-09T19:36:54.617Z,2.50
2019-03-09T19:39:22.991Z,3.80
2019-03-09T19:41:51.387Z,3.05
2019-03-09T19:44:19.772Z,2.80
2019-03-09T19:46:48.204Z,3.65
2019-03-09T19:49:16.641Z,2.87
2019-03-09T19:51:45.654Z,2.67
2019-03-09T19:54:14.108Z,2.77
2019-03-09T19:56:42.500Z,2.52
2019-03-09T19:59:10.889Z,3.15
2019-03-09T20:01:39.360Z,2.85
2019-03-09T20:04:07.829Z,3.10
2019-03-09T20:06:36.449Z,3.87
2019-03-09T20:09:06.672Z,3.33
2019-03-09T20:11:35.076Z,3.02
2019-03-09T20:14:03.529Z,3.30
2019-03-09T20:16:32.247Z,3.00
2019-03-09T20:19:00.666Z,3.33
2019-03-09T20:21:29.108Z,2.42
2019-03-09T20:23:57.568Z,3.58
2019-03-09T20:26:25.985Z,3.62
2019-03-09T20:28:54.372Z,3.25
2019-03-09T20:31:22.764Z,4.00
2019-03-09T20:33:51.204Z,3.37
2019-03-09T20:36:19.783Z,3.20
2019-03-09T20:38:48.235Z,3.37
2019-03-09T20:41:16.639Z,2.98
2019-03-09T20:43:45.020Z,2.90
2019-03-09T20:46:13.479Z,3.65
2019-03-09T20:48:41.860Z,3.62
2019-03-09T20:51:10.267Z,2.30
2019-03-09T20:53:38.645Z,2.80
2019-03-09T20:56:07.039Z,2.85
2019-03-09T20:58:35.427Z,2.87
2019-03-09T21:01:03.807Z,3.22
2019-03-09T21:03:32.257Z,3.58
2019-03-09T21:06:00.634Z,2.62
2019-03-09T21:08:29.023Z,2.85
2019-03-09T21:11:03.931Z,2.98
2019-03-09T21:13:27.516Z,2.67
2019-03-09T21:15:55.900Z,3.02
2019-03-09T21:18:24.305Z,3.30
2019-03-09T21:20:52.684Z,3.15
2019-03-09T21:23:21.094Z,2.95
2019-03-09T21:25:49.477Z,2.67
2019-03-09T21:28:17.877Z,2.77
2019-03-09T21:30:46.261Z,2.33
2019-03-09T21:33:14.649Z,2.52
2019-03-09T21:35:43.028Z,2.12
2019-03-09T21:38:11.429Z,3.27
2019-03-09T21:40:39.804Z,2.50
2019-03-09T21:43:08.226Z,3.55
2019-03-09T21:45:36.616Z,2.10
2019-03-09T21:48:05.007Z,2.60
2019-03-09T21:50:33.403Z,2.87
2019-03-09T21:53:02.065Z,2.35
2019-03-09T21:55:30.516Z,2.92
2019-03-09T21:57:58.908Z,2.47
2019-03-09T22:00:27.300Z,2.42
2019-03-09T22:02:55.687Z,2.75
2019-03-09T22:05:24.075Z,2.60
2019-03-09T22:07:52.477Z,2.92
2019-03-09T22:10:20.865Z,3.02
2019-03-09T22:12:49.263Z,2.77
2019-03-09T22:15:18.481Z,2.33
2019-03-09T22:17:46.955Z,2.52
2019-03-09T22:20:15.792Z,2.70
2019-03-09T22:22:44.191Z,2.52
2019-03-09T22:25:14.218Z,3.00
2019-03-09T22:27:42.612Z,2.80
2019-03-09T22:30:14.077Z,2.30
2019-03-09T22:32:42.551Z,2.27
2019-03-09T22:35:12.638Z,2.47
2019-03-09T22:37:41.081Z,3.15
2019-03-09T22:40:11.599Z,2.72
2019-03-09T22:42:40.081Z,2.72
2019-03-09T22:45:11.039Z,2.60
2019-03-09T22:47:39.416Z,2.50
2019-03-09T22:50:10.859Z,2.20
2019-03-09T22:52:39.367Z,3.00
2019-03-09T22:55:08.812Z,2.30
2019-03-09T22:57:37.211Z,2.37
2019-03-09T23:00:11.575Z,2.37
2019-03-09T23:02:40.037Z,2.27
2019-03-09T23:05:10.370Z,2.05
2019-03-09T23:07:38.825Z,1.75
2019-03-09T23:10:15.942Z,2.42
2019-03-09T23:12:44.467Z,2.40
2019-03-09T23:15:17.468Z,2.30
2019-03-09T23:17:46.205Z,2.85
2019-03-09T23:20:16.240Z,3.15
2019-03-09T23:22:44.627Z,2.25
2019-03-09T23:25:14.872Z,2.85
2019-03-09T23:27:43.331Z,2.37
2019-03-09T23:30:17.330Z,3.12
2019-03-09T23:32:45.731Z,2.40
2019-03-09T23:35:14.369Z,2.25
2019-03-09T23:37:43.115Z,2.50
2019-03-09T23:40:13.995Z,2.58
2019-03-09T23:42:42.373Z,2.33
2019-03-09T23:45:13.211Z,2.00
2019-03-09T23:47:41.682Z,2.42
2019-03-09T23:50:12.753Z,2.75
2019-03-09T23:52:41.140Z,3.02
2019-03-09T23:55:20.820Z,2.08
2019-03-09T23:57:40.667Z,2.05
